Terminal Aerodrome Forecast
Issued by NWS Sioux Falls, SD

Home | Current Version | Previous Version | Text Only | Print | Product List | Glossary Off
Versions: 1 2 3 4 5 6 7 8 9 10 11 12 13 14 15 16

004
FTUS43 KFSD 181120
TAFFSD
TAF
KFSD 181120Z 1812/1912 27005KT P6SM SCT200
     FM181400 VRB03KT P6SM SCT200
     FM182100 16005KT P6SM SCT200=

USA.gov is the U.S. government's official web portal to all federal, state and local government web resources and services.